sensor_id;sensor_type;location;lat;lon;timestamp;temperature;humidity
35680;DHT22;21803;53.586;10.040;2023-09-19T04:03:07;25.70;53.60
35680;DHT22;21803;53.586;10.040;2023-09-19T04:05:33;25.70;53.60
35680;DHT22;21803;53.586;10.040;2023-09-19T04:07:59;25.70;53.50
35680;DHT22;21803;53.586;10.040;2023-09-19T04:10:25;25.70;53.50
35680;DHT22;21803;53.586;10.040;2023-09-19T04:12:54;25.70;53.60
35680;DHT22;21803;53.586;10.040;2023-09-19T04:15:20;25.70;53.50
35680;DHT22;21803;53.586;10.040;2023-09-19T04:17:49;25.70;53.50
35680;DHT22;21803;53.586;10.040;2023-09-19T04:20:15;25.70;53.40
35680;DHT22;21803;53.586;10.040;2023-09-19T04:22:41;25.60;53.30
35680;DHT22;21803;53.586;10.040;2023-09-19T04:25:07;25.70;53.30
35680;DHT22;21803;53.586;10.040;2023-09-19T04:27:33;25.70;53.30
35680;DHT22;21803;53.586;10.040;2023-09-19T04:29:58;25.70;53.20
35680;DHT22;21803;53.586;10.040;2023-09-19T04:32:28;25.70;53.20
35680;DHT22;21803;53.586;10.040;2023-09-19T04:34:54;25.60;53.10
35680;DHT22;21803;53.586;10.040;2023-09-19T04:37:20;25.70;53.10
35680;DHT22;21803;53.586;10.040;2023-09-19T04:39:46;25.80;53.20
35680;DHT22;21803;53.586;10.040;2023-09-19T04:42:13;25.70;53.10
35680;DHT22;21803;53.586;10.040;2023-09-19T04:44:39;25.60;53.00
35680;DHT22;21803;53.586;10.040;2023-09-19T04:47:05;25.60;53.00
35680;DHT22;21803;53.586;10.040;2023-09-19T04:49:31;25.60;53.00
35680;DHT22;21803;53.586;10.040;2023-09-19T04:51:56;25.70;53.20
35680;DHT22;21803;53.586;10.040;2023-09-19T04:54:22;25.60;53.30
35680;DHT22;21803;53.586;10.040;2023-09-19T04:56:48;25.70;53.90
35680;DHT22;21803;53.586;10.040;2023-09-19T04:59:13;25.70;53.10
35680;DHT22;21803;53.586;10.040;2023-09-19T05:01:40;25.70;52.90
35680;DHT22;21803;53.586;10.040;2023-09-19T05:04:05;25.70;52.90
35680;DHT22;21803;53.586;10.040;2023-09-19T05:06:31;25.60;52.80
35680;DHT22;21803;53.586;10.040;2023-09-19T05:08:57;25.70;52.80
35680;DHT22;21803;53.586;10.040;2023-09-19T05:11:22;25.70;52.80
35680;DHT22;21803;53.586;10.040;2023-09-19T05:13:48;25.60;52.70
35680;DHT22;21803;53.586;10.040;2023-09-19T05:16:16;25.70;52.70
35680;DHT22;21803;53.586;10.040;2023-09-19T05:18:41;25.70;52.70
35680;DHT22;21803;53.586;10.040;2023-09-19T05:21:07;25.60;52.60
35680;DHT22;21803;53.586;10.040;2023-09-19T05:23:33;25.70;52.70
35680;DHT22;21803;53.586;10.040;2023-09-19T05:25:58;25.60;52.60
35680;DHT22;21803;53.586;10.040;2023-09-19T05:28:26;25.70;52.60
35680;DHT22;21803;53.586;10.040;2023-09-19T05:30:55;25.60;52.50
35680;DHT22;21803;53.586;10.040;2023-09-19T05:33:20;25.70;53.20
35680;DHT22;21803;53.586;10.040;2023-09-19T05:35:48;25.50;52.40
35680;DHT22;21803;53.586;10.040;2023-09-19T05:38:14;25.60;52.50
35680;DHT22;21803;53.586;10.040;2023-09-19T05:40:41;25.70;52.50
35680;DHT22;21803;53.586;10.040;2023-09-19T05:43:09;25.70;52.50
35680;DHT22;21803;53.586;10.040;2023-09-19T05:45:35;25.70;52.40
35680;DHT22;21803;53.586;10.040;2023-09-19T05:48:12;25.70;52.40
35680;DHT22;21803;53.586;10.040;2023-09-19T05:50:42;25.70;52.30
35680;DHT22;21803;53.586;10.040;2023-09-19T05:53:08;25.70;52.20
35680;DHT22;21803;53.586;10.040;2023-09-19T05:55:35;25.70;52.10
35680;DHT22;21803;53.586;10.040;2023-09-19T05:58:00;25.70;52.00
35680;DHT22;21803;53.586;10.040;2023-09-19T06:00:28;25.70;52.00
35680;DHT22;21803;53.586;10.040;2023-09-19T06:02:56;25.70;52.00
35680;DHT22;21803;53.586;10.040;2023-09-19T06:05:23;25.70;51.90
35680;DHT22;21803;53.586;10.040;2023-09-19T06:07:49;25.70;51.90
35680;DHT22;21803;53.586;10.040;2023-09-19T06:10:16;25.70;51.80
35680;DHT22;21803;53.586;10.040;2023-09-19T06:12:42;25.70;51.70
35680;DHT22;21803;53.586;10.040;2023-09-19T06:15:10;25.80;52.40
35680;DHT22;21803;53.586;10.040;2023-09-19T06:17:41;25.70;51.70
35680;DHT22;21803;53.586;10.040;2023-09-19T06:20:07;25.70;51.70
35680;DHT22;21803;53.586;10.040;2023-09-19T06:22:44;25.80;51.80
35680;DHT22;21803;53.586;10.040;2023-09-19T06:25:10;25.80;51.80
35680;DHT22;21803;53.586;10.040;2023-09-19T06:27:40;25.70;51.70
35680;DHT22;21803;53.586;10.040;2023-09-19T06:30:11;25.70;51.70
35680;DHT22;21803;53.586;10.040;2023-09-19T06:32:37;25.80;51.80
35680;DHT22;21803;53.586;10.040;2023-09-19T06:35:03;25.80;51.80
35680;DHT22;21803;53.586;10.040;2023-09-19T06:37:32;25.80;51.90
35680;DHT22;21803;53.586;10.040;2023-09-19T06:39:58;25.90;51.90
35680;DHT22;21803;53.586;10.040;2023-09-19T06:42:23;25.70;51.70
35680;DHT22;21803;53.586;10.040;2023-09-19T06:44:49;25.80;51.90
35680;DHT22;21803;53.586;10.040;2023-09-19T06:47:15;25.70;51.80
35680;DHT22;21803;53.586;10.040;2023-09-19T06:49:41;25.70;51.70
35680;DHT22;21803;53.586;10.040;2023-09-19T06:52:09;25.70;51.80
35680;DHT22;21803;53.586;10.040;2023-09-19T06:54:35;25.80;52.40
35680;DHT22;21803;53.586;10.040;2023-09-19T06:57:01;25.70;51.80
35680;DHT22;21803;53.586;10.040;2023-09-19T06:59:27;25.70;51.70
35680;DHT22;21803;53.586;10.040;2023-09-19T07:01:52;25.70;51.80
35680;DHT22;21803;53.586;10.040;2023-09-19T07:04:18;25.70;51.90
35680;DHT22;21803;53.586;10.040;2023-09-19T07:06:51;25.70;51.90
35680;DHT22;21803;53.586;10.040;2023-09-19T07:09:17;25.70;51.90
35680;DHT22;21803;53.586;10.040;2023-09-19T07:11:45;25.80;52.10
35680;DHT22;21803;53.586;10.040;2023-09-19T07:14:10;25.60;52.00
35680;DHT22;21803;53.586;10.040;2023-09-19T07:16:37;25.60;52.00
35680;DHT22;21803;53.586;10.040;2023-09-19T07:19:04;25.70;52.00
35680;DHT22;21803;53.586;10.040;2023-09-19T07:21:30;25.80;52.20
35680;DHT22;21803;53.586;10.040;2023-09-19T07:23:55;25.70;52.10
35680;DHT22;21803;53.586;10.040;2023-09-19T07:26:21;25.80;52.20
35680;DHT22;21803;53.586;10.040;2023-09-19T07:28:46;25.70;52.10
35680;DHT22;21803;53.586;10.040;2023-09-19T07:31:12;25.70;52.10
35680;DHT22;21803;53.586;10.040;2023-09-19T07:33:39;25.80;52.10
35680;DHT22;21803;53.586;10.040;2023-09-19T07:36:05;25.70;52.00
35680;DHT22;21803;53.586;10.040;2023-09-19T07:38:31;25.70;52.00
35680;DHT22;21803;53.586;10.040;2023-09-19T07:41:01;25.80;52.00
35680;DHT22;21803;53.586;10.040;2023-09-19T07:43:27;25.70;51.90
35680;DHT22;21803;53.586;10.040;2023-09-19T07:45:53;25.70;51.90
35680;DHT22;21803;53.586;10.040;2023-09-19T07:48:18;25.70;51.90
35680;DHT22;21803;53.586;10.040;2023-09-19T07:50:44;25.70;51.90
35680;DHT22;21803;53.586;10.040;2023-09-19T07:53:10;25.70;51.80
35680;DHT22;21803;53.586;10.040;2023-09-19T07:55:38;25.70;51.80
35680;DHT22;21803;53.586;10.040;2023-09-19T07:58:06;25.60;51.70
35680;DHT22;21803;53.586;10.040;2023-09-19T08:00:32;25.80;51.80
35680;DHT22;21803;53.586;10.040;2023-09-19T08:03:00;25.80;51.80
35680;DHT22;21803;53.586;10.040;2023-09-19T08:05:26;25.70;51.70
35680;DHT22;21803;53.586;10.040;2023-09-19T08:07:52;25.60;51.70
35680;DHT22;21803;53.586;10.040;2023-09-19T08:10:19;25.60;51.70
35680;DHT22;21803;53.586;10.040;2023-09-19T08:12:47;25.60;51.60
35680;DHT22;21803;53.586;10.040;2023-09-19T08:15:18;25.70;51.70
35680;DHT22;21803;53.586;10.040;2023-09-19T08:17:47;25.70;51.70
35680;DHT22;21803;53.586;10.040;2023-09-19T08:20:13;25.60;51.60
35680;DHT22;21803;53.586;10.040;2023-09-19T08:22:43;25.60;51.60
35680;DHT22;21803;53.586;10.040;2023-09-19T08:25:11;25.70;51.70
35680;DHT22;21803;53.586;10.040;2023-09-19T08:27:37;25.70;51.70
35680;DHT22;21803;53.586;10.040;2023-09-19T08:30:02;25.70;51.70
35680;DHT22;21803;53.586;10.040;2023-09-19T08:32:29;25.60;51.60
35680;DHT22;21803;53.586;10.040;2023-09-19T08:34:54;25.70;51.70
35680;DHT22;21803;53.586;10.040;2023-09-19T08:37:20;25.60;51.60
35680;DHT22;21803;53.586;10.040;2023-09-19T08:39:45;25.70;51.60
35680;DHT22;21803;53.586;10.040;2023-09-19T08:42:11;25.70;52.20
35680;DHT22;21803;53.586;10.040;2023-09-19T08:44:38;25.70;51.60
35680;DHT22;21803;53.586;10.040;2023-09-19T08:47:10;25.70;51.60
35680;DHT22;21803;53.586;10.040;2023-09-19T08:49:49;25.60;51.50
35680;DHT22;21803;53.586;10.040;2023-09-19T08:52:42;25.60;51.50
35680;DHT22;21803;53.586;10.040;2023-09-19T08:55:12;25.70;51.50
35680;DHT22;21803;53.586;10.040;2023-09-19T08:57:38;25.70;51.60
35680;DHT22;21803;53.586;10.040;2023-09-19T09:00:07;25.70;51.50
35680;DHT22;21803;53.586;10.040;2023-09-19T09:02:38;25.70;51.60
35680;DHT22;21803;53.586;10.040;2023-09-19T09:05:10;25.70;51.80
35680;DHT22;21803;53.586;10.040;2023-09-19T09:07:37;25.60;51.70
35680;DHT22;21803;53.586;10.040;2023-09-19T09:10:03;25.70;51.70
35680;DHT22;21803;53.586;10.040;2023-09-19T09:12:29;25.70;52.30
35680;DHT22;21803;53.586;10.040;2023-09-19T09:14:55;25.60;51.70
35680;DHT22;21803;53.586;10.040;2023-09-19T09:17:23;25.70;51.70
35680;DHT22;21803;53.586;10.040;2023-09-19T09:19:52;25.70;51.80
35680;DHT22;21803;53.586;10.040;2023-09-19T09:22:18;25.70;51.80
35680;DHT22;21803;53.586;10.040;2023-09-19T09:24:54;25.70;51.80
35680;DHT22;21803;53.586;10.040;2023-09-19T09:27:20;25.70;51.80
35680;DHT22;21803;53.586;10.040;2023-09-19T09:29:50;25.70;51.90
35680;DHT22;21803;53.586;10.040;2023-09-19T09:34:48;25.70;51.90
35680;DHT22;21803;53.586;10.040;2023-09-19T09:37:18;25.70;51.90
35680;DHT22;21803;53.586;10.040;2023-09-19T09:40:00;25.70;51.90
35680;DHT22;21803;53.586;10.040;2023-09-19T09:42:45;25.70;51.90
35680;DHT22;21803;53.586;10.040;2023-09-19T09:45:22;25.70;51.90
35680;DHT22;21803;53.586;10.040;2023-09-19T09:48:03;25.70;51.90
35680;DHT22;21803;53.586;10.040;2023-09-19T09:50:34;25.70;51.90
35680;DHT22;21803;53.586;10.040;2023-09-19T09:53:23;25.70;51.90
35680;DHT22;21803;53.586;10.040;2023-09-19T09:56:09;25.80;52.00
35680;DHT22;21803;53.586;10.040;2023-09-19T09:58:48;25.70;51.90
35680;DHT22;21803;53.586;10.040;2023-09-19T10:01:14;25.70;51.90
35680;DHT22;21803;53.586;10.040;2023-09-19T10:03:42;25.80;52.00
35680;DHT22;21803;53.586;10.040;2023-09-19T10:06:14;25.70;51.90
35680;DHT22;21803;53.586;10.040;2023-09-19T10:09:03;25.70;51.80
35680;DHT22;21803;53.586;10.040;2023-09-19T10:11:30;25.70;51.90
35680;DHT22;21803;53.586;10.040;2023-09-19T10:13:58;25.70;51.80
35680;DHT22;21803;53.586;10.040;2023-09-19T10:16:30;26.90;52.60
35680;DHT22;21803;53.586;10.040;2023-09-19T10:18:59;25.70;51.80
35680;DHT22;21803;53.586;10.040;2023-09-19T10:21:28;25.80;51.90
35680;DHT22;21803;53.586;10.040;2023-09-19T10:23:58;25.70;51.80
35680;DHT22;21803;53.586;10.040;2023-09-19T10:26:26;26.60;52.40
35680;DHT22;21803;53.586;10.040;2023-09-19T10:28:56;25.70;51.80
35680;DHT22;21803;53.586;10.040;2023-09-19T10:31:26;25.80;51.80
35680;DHT22;21803;53.586;10.040;2023-09-19T10:33:55;25.70;51.70
35680;DHT22;21803;53.586;10.040;2023-09-19T10:36:24;25.80;51.70
35680;DHT22;21803;53.586;10.040;2023-09-19T10:38:55;25.80;51.70
35680;DHT22;21803;53.586;10.040;2023-09-19T10:41:22;25.70;51.60
35680;DHT22;21803;53.586;10.040;2023-09-19T10:43:48;25.70;51.60
35680;DHT22;21803;53.586;10.040;2023-09-19T10:46:14;25.80;51.70
35680;DHT22;21803;53.586;10.040;2023-09-19T10:48:41;25.80;51.60
35680;DHT22;21803;53.586;10.040;2023-09-19T10:51:11;25.70;52.10
35680;DHT22;21803;53.586;10.040;2023-09-19T10:54:05;25.70;51.50
35680;DHT22;21803;53.586;10.040;2023-09-19T10:56:35;25.70;51.40
35680;DHT22;21803;53.586;10.040;2023-09-19T10:59:11;25.70;51.40
35680;DHT22;21803;53.586;10.040;2023-09-19T11:01:42;25.70;51.40
35680;DHT22;21803;53.586;10.040;2023-09-19T11:04:31;25.80;51.60
35680;DHT22;21803;53.586;10.040;2023-09-19T11:07:07;25.80;51.50
35680;DHT22;21803;53.586;10.040;2023-09-19T11:09:49;25.70;51.40
35680;DHT22;21803;53.586;10.040;2023-09-19T11:15:07;25.70;51.40
35680;DHT22;21803;53.586;10.040;2023-09-19T11:17:42;25.80;51.50
35680;DHT22;21803;53.586;10.040;2023-09-19T11:30:37;25.70;51.20
35680;DHT22;21803;53.586;10.040;2023-09-19T11:33:25;25.80;51.20
35680;DHT22;21803;53.586;10.040;2023-09-19T11:46:33;25.80;51.10
35680;DHT22;21803;53.586;10.040;2023-09-19T11:49:06;25.80;51.00
35680;DHT22;21803;53.586;10.040;2023-09-19T11:51:43;25.80;51.00
35680;DHT22;21803;53.586;10.040;2023-09-19T11:54:12;25.70;51.00
35680;DHT22;21803;53.586;10.040;2023-09-19T11:56:44;25.80;51.00
35680;DHT22;21803;53.586;10.040;2023-09-19T11:59:11;25.70;50.90
35680;DHT22;21803;53.586;10.040;2023-09-19T12:01:38;25.70;50.90
35680;DHT22;21803;53.586;10.040;2023-09-19T12:04:11;25.70;50.90
35680;DHT22;21803;53.586;10.040;2023-09-19T12:06:37;25.70;50.80
35680;DHT22;21803;53.586;10.040;2023-09-19T12:09:04;25.80;50.80
35680;DHT22;21803;53.586;10.040;2023-09-19T12:11:41;25.80;50.80
35680;DHT22;21803;53.586;10.040;2023-09-19T12:14:09;25.80;50.80
35680;DHT22;21803;53.586;10.040;2023-09-19T12:16:35;25.80;50.70
35680;DHT22;21803;53.586;10.040;2023-09-19T12:19:18;25.80;50.70
35680;DHT22;21803;53.586;10.040;2023-09-19T12:21:54;25.80;50.70
35680;DHT22;21803;53.586;10.040;2023-09-19T12:24:20;25.80;50.60
35680;DHT22;21803;53.586;10.040;2023-09-19T12:26:46;25.90;50.70
35680;DHT22;21803;53.586;10.040;2023-09-19T12:29:21;25.80;50.60
35680;DHT22;21803;53.586;10.040;2023-09-19T12:31:48;25.80;50.60
35680;DHT22;21803;53.586;10.040;2023-09-19T12:34:26;25.80;50.60
35680;DHT22;21803;53.586;10.040;2023-09-19T12:37:09;25.80;50.50
35680;DHT22;21803;53.586;10.040;2023-09-19T12:39:39;25.80;50.50
35680;DHT22;21803;53.586;10.040;2023-09-19T12:42:10;25.80;50.50
35680;DHT22;21803;53.586;10.040;2023-09-19T12:44:37;25.80;50.50
35680;DHT22;21803;53.586;10.040;2023-09-19T12:47:17;25.70;50.50
35680;DHT22;21803;53.586;10.040;2023-09-19T12:52:37;25.80;50.60
35680;DHT22;21803;53.586;10.040;2023-09-19T12:55:04;25.70;50.50
35680;DHT22;21803;53.586;10.040;2023-09-19T12:57:32;25.70;50.50
35680;DHT22;21803;53.586;10.040;2023-09-19T13:00:03;25.70;50.40
35680;DHT22;21803;53.586;10.040;2023-09-19T13:02:31;25.80;50.50
35680;DHT22;21803;53.586;10.040;2023-09-19T13:04:57;25.70;50.40
35680;DHT22;21803;53.586;10.040;2023-09-19T13:07:44;25.70;50.40
35680;DHT22;21803;53.586;10.040;2023-09-19T13:10:11;25.80;50.50
35680;DHT22;21803;53.586;10.040;2023-09-19T13:12:41;25.70;50.40
35680;DHT22;21803;53.586;10.040;2023-09-19T13:15:10;25.80;50.50
35680;DHT22;21803;53.586;10.040;2023-09-19T13:17:48;25.80;50.40
35680;DHT22;21803;53.586;10.040;2023-09-19T13:20:24;25.80;50.40
35680;DHT22;21803;53.586;10.040;2023-09-19T13:22:54;25.80;50.50
35680;DHT22;21803;53.586;10.040;2023-09-19T13:25:23;25.80;50.50
35680;DHT22;21803;53.586;10.040;2023-09-19T13:27:54;25.80;50.60
35680;DHT22;21803;53.586;10.040;2023-09-19T13:30:22;25.80;50.60
35680;DHT22;21803;53.586;10.040;2023-09-19T13:32:48;25.80;50.60
35680;DHT22;21803;53.586;10.040;2023-09-19T13:35:14;25.80;50.60
35680;DHT22;21803;53.586;10.040;2023-09-19T13:37:41;25.80;50.60
35680;DHT22;21803;53.586;10.040;2023-09-19T13:40:11;25.80;50.60
35680;DHT22;21803;53.586;10.040;2023-09-19T13:42:37;25.80;50.70
35680;DHT22;21803;53.586;10.040;2023-09-19T13:45:04;25.70;50.60
35680;DHT22;21803;53.586;10.040;2023-09-19T13:47:36;25.80;50.70
35680;DHT22;21803;53.586;10.040;2023-09-19T13:50:03;25.80;50.60
35680;DHT22;21803;53.586;10.040;2023-09-19T13:52:30;25.80;50.60
35680;DHT22;21803;53.586;10.040;2023-09-19T13:54:56;25.80;50.60
35680;DHT22;21803;53.586;10.040;2023-09-19T13:57:24;25.90;50.70
35680;DHT22;21803;53.586;10.040;2023-09-19T13:59:54;25.80;50.60
35680;DHT22;21803;53.586;10.040;2023-09-19T14:02:23;25.80;50.60
35680;DHT22;21803;53.586;10.040;2023-09-19T14:04:50;25.80;50.60
35680;DHT22;21803;53.586;10.040;2023-09-19T14:07:16;25.80;50.50
35680;DHT22;21803;53.586;10.040;2023-09-19T14:09:44;25.90;50.60
35680;DHT22;21803;53.586;10.040;2023-09-19T14:12:09;25.80;50.60
35680;DHT22;21803;53.586;10.040;2023-09-19T14:14:35;25.90;50.60
35680;DHT22;21803;53.586;10.040;2023-09-19T14:17:02;25.80;50.60
35680;DHT22;21803;53.586;10.040;2023-09-19T14:19:28;25.80;50.60
35680;DHT22;21803;53.586;10.040;2023-09-19T14:21:53;25.80;50.60
35680;DHT22;21803;53.586;10.040;2023-09-19T14:24:23;25.80;50.60
35680;DHT22;21803;53.586;10.040;2023-09-19T14:26:49;25.80;50.50
35680;DHT22;21803;53.586;10.040;2023-09-19T14:29:15;25.80;50.40
35680;DHT22;21803;53.586;10.040;2023-09-19T14:31:41;25.80;50.40
35680;DHT22;21803;53.586;10.040;2023-09-19T14:34:08;25.80;50.40
35680;DHT22;21803;53.586;10.040;2023-09-19T14:36:36;25.80;50.40
35680;DHT22;21803;53.586;10.040;2023-09-19T14:39:01;25.80;50.40
35680;DHT22;21803;53.586;10.040;2023-09-19T14:41:27;25.80;50.40
35680;DHT22;21803;53.586;10.040;2023-09-19T14:43:53;25.70;50.30
35680;DHT22;21803;53.586;10.040;2023-09-19T14:46:20;25.90;50.40
35680;DHT22;21803;53.586;10.040;2023-09-19T14:48:45;25.80;50.40
35680;DHT22;21803;53.586;10.040;2023-09-19T14:51:14;25.80;50.40
35680;DHT22;21803;53.586;10.040;2023-09-19T14:53:40;25.80;50.40
35680;DHT22;21803;53.586;10.040;2023-09-19T14:56:10;25.80;50.40
35680;DHT22;21803;53.586;10.040;2023-09-19T14:58:37;25.70;50.40
35680;DHT22;21803;53.586;10.040;2023-09-19T15:01:12;25.90;50.50
35680;DHT22;21803;53.586;10.040;2023-09-19T15:03:38;25.80;50.50
35680;DHT22;21803;53.586;10.040;2023-09-19T15:06:06;25.80;50.50
35680;DHT22;21803;53.586;10.040;2023-09-19T15:08:32;25.80;50.60
35680;DHT22;21803;53.586;10.040;2023-09-19T15:11:00;25.90;50.60
35680;DHT22;21803;53.586;10.040;2023-09-19T15:13:29;25.80;50.60
35680;DHT22;21803;53.586;10.040;2023-09-19T15:16:14;25.70;50.50
35680;DHT22;21803;53.586;10.040;2023-09-19T15:18:44;25.80;50.50
35680;DHT22;21803;53.586;10.040;2023-09-19T15:21:11;25.80;50.50
35680;DHT22;21803;53.586;10.040;2023-09-19T15:23:38;25.80;50.50
35680;DHT22;21803;53.586;10.040;2023-09-19T15:26:04;25.80;50.50
35680;DHT22;21803;53.586;10.040;2023-09-19T15:28:31;25.70;50.50
35680;DHT22;21803;53.586;10.040;2023-09-19T15:31:09;25.80;50.50
35680;DHT22;21803;53.586;10.040;2023-09-19T15:33:35;25.70;50.50
35680;DHT22;21803;53.586;10.040;2023-09-19T15:36:11;25.70;50.50
35680;DHT22;21803;53.586;10.040;2023-09-19T15:38:59;25.70;50.50
35680;DHT22;21803;53.586;10.040;2023-09-19T15:41:27;25.80;50.60
35680;DHT22;21803;53.586;10.040;2023-09-19T15:43:54;25.70;50.50
35680;DHT22;21803;53.586;10.040;2023-09-19T15:46:20;25.60;50.50
35680;DHT22;21803;53.586;10.040;2023-09-19T15:48:46;25.80;50.60
35680;DHT22;21803;53.586;10.040;2023-09-19T15:51:13;25.70;50.50
35680;DHT22;21803;53.586;10.040;2023-09-19T15:53:47;25.80;50.70
35680;DHT22;21803;53.586;10.040;2023-09-19T15:56:14;25.70;50.60
35680;DHT22;21803;53.586;10.040;2023-09-19T15:58:44;25.80;50.60
35680;DHT22;21803;53.586;10.040;2023-09-19T16:01:10;25.70;50.60
35680;DHT22;21803;53.586;10.040;2023-09-19T16:03:37;25.80;50.70
35680;DHT22;21803;53.586;10.040;2023-09-19T16:06:11;24.10;49.80
35680;DHT22;21803;53.586;10.040;2023-09-19T16:08:41;25.80;50.70
35680;DHT22;21803;53.586;10.040;2023-09-19T16:11:07;25.70;50.60
35680;DHT22;21803;53.586;10.040;2023-09-19T16:13:34;25.70;50.60
35680;DHT22;21803;53.586;10.040;2023-09-19T16:16:00;25.70;50.60
35680;DHT22;21803;53.586;10.040;2023-09-19T16:18:25;25.70;50.60
35680;DHT22;21803;53.586;10.040;2023-09-19T16:20:51;25.70;50.70
35680;DHT22;21803;53.586;10.040;2023-09-19T16:23:17;25.70;50.60
35680;DHT22;21803;53.586;10.040;2023-09-19T16:25:42;25.70;50.70
35680;DHT22;21803;53.586;10.040;2023-09-19T16:28:08;25.60;50.60
35680;DHT22;21803;53.586;10.040;2023-09-19T16:30:33;25.70;50.70
35680;DHT22;21803;53.586;10.040;2023-09-19T16:32:59;25.80;50.70
35680;DHT22;21803;53.586;10.040;2023-09-19T16:35:25;25.80;50.70
35680;DHT22;21803;53.586;10.040;2023-09-19T16:37:51;25.70;50.70
35680;DHT22;21803;53.586;10.040;2023-09-19T16:40:16;25.70;50.60
35680;DHT22;21803;53.586;10.040;2023-09-19T16:42:42;25.60;50.60
35680;DHT22;21803;53.586;10.040;2023-09-19T16:45:09;25.70;50.60
35680;DHT22;21803;53.586;10.040;2023-09-19T16:47:38;25.70;50.60
35680;DHT22;21803;53.586;10.040;2023-09-19T16:50:03;25.70;50.60
35680;DHT22;21803;53.586;10.040;2023-09-19T16:52:31;25.70;50.50
35680;DHT22;21803;53.586;10.040;2023-09-19T16:54:56;25.70;50.50
35680;DHT22;21803;53.586;10.040;2023-09-19T16:57:22;25.70;50.50
35680;DHT22;21803;53.586;10.040;2023-09-19T16:59:48;25.70;50.50
35680;DHT22;21803;53.586;10.040;2023-09-19T17:02:15;25.70;50.50
35680;DHT22;21803;53.586;10.040;2023-09-19T17:04:42;25.70;50.50
35680;DHT22;21803;53.586;10.040;2023-09-19T17:07:07;25.70;50.50
35680;DHT22;21803;53.586;10.040;2023-09-19T17:09:35;25.70;50.60
35680;DHT22;21803;53.586;10.040;2023-09-19T17:12:00;25.70;50.60
35680;DHT22;21803;53.586;10.040;2023-09-19T17:14:27;25.70;50.60
35680;DHT22;21803;53.586;10.040;2023-09-19T17:16:53;25.70;50.60
35680;DHT22;21803;53.586;10.040;2023-09-19T17:19:18;25.70;50.60
35680;DHT22;21803;53.586;10.040;2023-09-19T17:21:48;25.70;50.60
35680;DHT22;21803;53.586;10.040;2023-09-19T17:24:13;25.70;50.60
35680;DHT22;21803;53.586;10.040;2023-09-19T17:26:39;25.70;50.60
35680;DHT22;21803;53.586;10.040;2023-09-19T17:29:05;25.60;50.50
35680;DHT22;21803;53.586;10.040;2023-09-19T17:31:32;25.80;50.70
35680;DHT22;21803;53.586;10.040;2023-09-19T17:33:57;25.70;50.60
35680;DHT22;21803;53.586;10.040;2023-09-19T17:36:25;25.80;50.60
35680;DHT22;21803;53.586;10.040;2023-09-19T17:38:55;25.70;50.40
35680;DHT22;21803;53.586;10.040;2023-09-19T17:41:24;25.70;50.30
35680;DHT22;21803;53.586;10.040;2023-09-19T17:43:54;25.70;50.30
35680;DHT22;21803;53.586;10.040;2023-09-19T17:46:21;25.70;50.30
35680;DHT22;21803;53.586;10.040;2023-09-19T17:48:50;25.70;50.30
35680;DHT22;21803;53.586;10.040;2023-09-19T17:51:16;25.60;50.20
35680;DHT22;21803;53.586;10.040;2023-09-19T17:53:43;25.70;50.30
35680;DHT22;21803;53.586;10.040;2023-09-19T17:56:10;25.70;50.20
35680;DHT22;21803;53.586;10.040;2023-09-19T17:58:39;25.70;50.30
35680;DHT22;21803;53.586;10.040;2023-09-19T18:01:12;25.70;50.20
35680;DHT22;21803;53.586;10.040;2023-09-19T18:03:39;25.70;50.20
35680;DHT22;21803;53.586;10.040;2023-09-19T18:06:10;25.70;50.20
35680;DHT22;21803;53.586;10.040;2023-09-19T18:08:36;25.70;50.30
35680;DHT22;21803;53.586;10.040;2023-09-19T18:11:03;25.70;50.20
35680;DHT22;21803;53.586;10.040;2023-09-19T18:13:29;25.70;50.30
35680;DHT22;21803;53.586;10.040;2023-09-19T18:15:55;25.70;50.30
35680;DHT22;21803;53.586;10.040;2023-09-19T18:18:22;25.80;50.30
35680;DHT22;21803;53.586;10.040;2023-09-19T18:20:47;25.70;50.30
35680;DHT22;21803;53.586;10.040;2023-09-19T18:23:13;25.70;50.30
35680;DHT22;21803;53.586;10.040;2023-09-19T18:25:39;25.70;50.30
35680;DHT22;21803;53.586;10.040;2023-09-19T18:28:05;25.60;50.20
35680;DHT22;21803;53.586;10.040;2023-09-19T18:30:31;25.70;50.30
35680;DHT22;21803;53.586;10.040;2023-09-19T18:32:59;25.70;50.20
35680;DHT22;21803;53.586;10.040;2023-09-19T18:35:25;25.70;50.10
35680;DHT22;21803;53.586;10.040;2023-09-19T18:37:54;25.70;50.10
35680;DHT22;21803;53.586;10.040;2023-09-19T18:40:21;25.80;50.10
35680;DHT22;21803;53.586;10.040;2023-09-19T18:42:46;25.70;50.00
35680;DHT22;21803;53.586;10.040;2023-09-19T18:45:12;25.70;50.20
35680;DHT22;21803;53.586;10.040;2023-09-19T18:47:38;25.70;49.90
35680;DHT22;21803;53.586;10.040;2023-09-19T18:50:04;25.70;49.90
35680;DHT22;21803;53.586;10.040;2023-09-19T18:52:30;25.70;50.50
35680;DHT22;21803;53.586;10.040;2023-09-19T18:54:56;25.70;49.90
35680;DHT22;21803;53.586;10.040;2023-09-19T18:57:22;25.70;49.90
35680;DHT22;21803;53.586;10.040;2023-09-19T18:59:48;25.70;49.90
35680;DHT22;21803;53.586;10.040;2023-09-19T19:02:14;25.70;49.90
35680;DHT22;21803;53.586;10.040;2023-09-19T19:04:39;25.70;49.90
35680;DHT22;21803;53.586;10.040;2023-09-19T19:07:06;25.70;49.90
35680;DHT22;21803;53.586;10.040;2023-09-19T19:09:33;25.70;49.90
35680;DHT22;21803;53.586;10.040;2023-09-19T19:11:59;25.70;49.90
35680;DHT22;21803;53.586;10.040;2023-09-19T19:14:25;25.60;49.80
35680;DHT22;21803;53.586;10.040;2023-09-19T19:16:51;25.70;49.90
35680;DHT22;21803;53.586;10.040;2023-09-19T19:19:16;25.60;49.80
35680;DHT22;21803;53.586;10.040;2023-09-19T19:21:42;25.60;49.90
35680;DHT22;21803;53.586;10.040;2023-09-19T19:24:07;25.50;49.80
35680;DHT22;21803;53.586;10.040;2023-09-19T19:26:33;25.60;49.80
35680;DHT22;21803;53.586;10.040;2023-09-19T19:28:58;25.60;49.80
35680;DHT22;21803;53.586;10.040;2023-09-19T19:31:24;25.60;49.80
35680;DHT22;21803;53.586;10.040;2023-09-19T19:33:50;25.70;49.80
35680;DHT22;21803;53.586;10.040;2023-09-19T19:36:18;25.60;49.70
35680;DHT22;21803;53.586;10.040;2023-09-19T19:38:46;25.60;49.70
35680;DHT22;21803;53.586;10.040;2023-09-19T19:41:11;25.60;49.70
35680;DHT22;21803;53.586;10.040;2023-09-19T19:43:37;25.60;49.60
35680;DHT22;21803;53.586;10.040;2023-09-19T19:46:04;25.70;49.70
35680;DHT22;21803;53.586;10.040;2023-09-19T19:48:30;25.60;49.60
35680;DHT22;21803;53.586;10.040;2023-09-19T19:50:55;25.60;49.70
35680;DHT22;21803;53.586;10.040;2023-09-19T19:53:24;25.70;49.70